Terminal Aerodrome Forecast
Issued by NWS

Home | Current Version | Previous Version | Graphics & Text | Print | Product List | Glossary On
Versions: 1 2 3 4 5 6 7 8 9 10 11 12 13 14 15
000
FTUS43 KICT 131700
TAFRSL
TAF
KRSL 131733Z 1318/1418 36024G35KT 5SM -DZ BR OVC009
     FM132100 34025G35KT 6SM BR SCT009 OVC015
     FM141000 35024G34KT P6SM SCT030 BKN060=

USA.gov is the U.S. government's official web portal to all federal, state and local government web resources and services.